Time;durP1;ratioP1;P1;durP2;ratioP2;P2;SDS_P1;SDS_P2;PMS_P1;PMS_P2;Temp;Humidity;BMP_temperature;BMP_pressure;BME280_temperature;BME280_humidity;BME280_pressure;Samples;Min_cycle;Max_cycle;Signal;HPM_P1;HPM_P2
2023/05/07 00:00:21;;;;;;;9.23;7.63;;;;;;;14.16;100.00;101368.03;5072521;28;20041;-81
2023/05/07 00:02:46;;;;;;;9.75;7.75;;;;;;;14.12;100.00;101354.22;5055205;28;20036;-81
2023/05/07 00:05:12;;;;;;;9.80;7.45;;;;;;;14.19;100.00;101367.63;5055046;28;20036;-81
2023/05/07 00:07:37;;;;;;;8.52;7.60;;;;;;;14.10;100.00;101353.63;5054594;28;20044;-81
2023/05/07 00:10:04;;;;;;;9.18;7.85;;;;;;;14.15;100.00;101366.41;5072145;28;20029;-81
2023/05/07 00:12:33;;;;;;;9.23;8.32;;;;;;;14.16;100.00;101365.34;5054353;28;20459;-81
2023/05/07 00:14:59;;;;;;;10.95;7.80;;;;;;;14.12;100.00;101358.78;5054428;28;20377;-81
2023/05/07 00:17:24;;;;;;;9.48;7.90;;;;;;;14.12;100.00;101361.47;5072929;28;20040;-82
2023/05/07 00:19:49;;;;;;;9.40;8.40;;;;;;;14.14;100.00;101356.69;5072011;28;20037;-81
2023/05/07 00:25:36;;;;;;;9.98;8.57;;;;;;;14.10;100.00;101347.44;5072999;28;20270;-81
2023/05/07 00:28:03;;;;;;;9.30;8.33;;;;;;;14.06;100.00;101338.16;5054798;28;20017;-81
2023/05/07 00:30:29;;;;;;;12.07;9.27;;;;;;;14.07;100.00;101347.88;5071829;28;20290;-81
2023/05/07 00:32:54;;;;;;;12.25;9.30;;;;;;;14.04;100.00;101340.28;5054748;28;20021;-81
2023/05/07 00:35:19;;;;;;;10.20;8.20;;;;;;;14.07;100.00;101351.41;5054560;28;20145;-81
2023/05/07 00:37:45;;;;;;;10.13;9.07;;;;;;;14.09;100.00;101348.47;5071551;28;20278;-81
2023/05/07 00:40:10;;;;;;;11.43;8.32;;;;;;;14.10;100.00;101342.88;5072819;28;20020;-81
2023/05/07 00:42:36;;;;;;;9.52;8.55;;;;;;;14.14;100.00;101349.44;5071684;28;20048;-81
2023/05/07 00:45:02;;;;;;;10.48;8.52;;;;;;;14.15;100.00;101334.94;5072568;28;20067;-81
2023/05/07 00:47:28;;;;;;;12.10;8.40;;;;;;;14.11;100.00;101327.56;5072448;28;20060;-82
2023/05/07 00:49:53;;;;;;;10.88;8.85;;;;;;;14.09;100.00;101332.34;5053900;28;20482;-81
2023/05/07 00:52:21;;;;;;;11.35;8.70;;;;;;;14.14;100.00;101341.38;5072387;28;20442;-81
2023/05/07 00:54:47;;;;;;;11.82;9.45;;;;;;;14.16;100.00;101341.16;5071375;28;20076;-81
2023/05/07 01:00:35;;;;;;;12.77;9.73;;;;;;;14.13;100.00;101333.53;5070845;28;20404;-82
2023/05/07 01:03:01;;;;;;;13.68;9.10;;;;;;;14.13;100.00;101330.84;5069447;28;20112;-82
2023/05/07 01:05:28;;;;;;;12.38;10.40;;;;;;;14.12;100.00;101329.19;5054433;28;20377;-82
2023/05/07 01:07:54;;;;;;;10.43;9.20;;;;;;;14.14;100.00;101332.47;5053798;28;20056;-82
2023/05/07 01:10:20;;;;;;;10.63;8.95;;;;;;;14.14;100.00;101332.47;5072134;28;20066;-81
2023/05/07 01:12:47;;;;;;;12.55;9.65;;;;;;;14.09;100.00;101333.16;5071531;28;20112;-81
2023/05/07 01:15:13;;;;;;;10.85;9.60;;;;;;;14.16;100.00;101335.75;5071874;28;20050;-81
2023/05/07 01:17:41;;;;;;;12.32;9.57;;;;;;;14.19;100.00;101329.97;5053957;28;20122;-80
2023/05/07 01:20:08;;;;;;;11.45;9.23;;;;;;;14.10;100.00;101325.91;5071066;28;20706;-81
2023/05/07 01:22:38;;;;;;;11.02;9.88;;;;;;;14.09;100.00;101324.28;5053858;28;20073;-82
2023/05/07 01:25:07;;;;;;;11.32;8.88;;;;;;;14.07;100.00;101312.94;5071145;28;20370;-80
2023/05/07 01:27:35;;;;;;;11.65;10.25;;;;;;;14.12;100.00;101313.88;5053886;28;20085;-81
2023/05/07 01:30:00;;;;;;;12.02;9.80;;;;;;;14.11;100.00;101312.25;5053880;28;20046;-81
2023/05/07 01:32:33;;;;;;;12.77;10.30;;;;;;;14.04;100.00;101311.50;5062771;28;20119;-81
2023/05/07 01:38:05;;;;;;;13.18;10.85;;;;;;;14.02;100.00;101305.53;5071939;28;19923;-81
2023/05/07 01:40:31;;;;;;;16.58;11.27;;;;;;;14.02;100.00;101304.72;5053715;28;20021;-81
2023/05/07 01:42:57;;;;;;;12.30;10.57;;;;;;;13.97;100.00;101291.94;5052903;28;20201;-81
2023/05/07 01:45:22;;;;;;;12.27;11.05;;;;;;;13.99;100.00;101308.69;5053592;28;20067;-81
2023/05/07 01:47:49;;;;;;;14.48;11.65;;;;;;;13.97;100.00;101300.03;5053744;28;20032;-81
2023/05/07 01:50:18;;;;;;;13.93;11.80;;;;;;;13.94;100.00;101301.28;5052961;28;20041;-81
2023/05/07 01:52:43;;;;;;;13.43;12.02;;;;;;;13.88;100.00;101294.13;5071735;28;20024;-81
2023/05/07 01:55:09;;;;;;;16.30;13.10;;;;;;;13.85;100.00;101294.56;5070897;28;20055;-81
2023/05/07 01:57:34;;;;;;;16.58;13.32;;;;;;;13.88;100.00;101304.88;5071579;28;20044;-81
2023/05/07 01:59:59;;;;;;;15.57;13.43;;;;;;;13.84;100.00;101303.66;5071519;28;20040;-82
2023/05/07 02:02:24;;;;;;;17.70;13.65;;;;;;;13.80;100.00;101291.72;5052663;28;20032;-81
2023/05/07 02:04:50;;;;;;;18.27;13.85;;;;;;;13.80;100.00;101302.47;5053512;28;20048;-81
2023/05/07 02:07:15;;;;;;;16.43;13.03;;;;;;;13.79;100.00;101291.94;5070691;28;20064;-81
2023/05/07 02:09:40;;;;;;;15.88;12.85;;;;;;;13.76;100.00;101290.53;5071379;28;20274;-81
2023/05/07 02:12:06;;;;;;;18.23;13.70;;;;;;;13.76;100.00;101289.72;5071391;28;20130;-82
2023/05/07 02:14:31;;;;;;;16.25;13.73;;;;;;;13.75;100.00;101294.25;5070486;28;20043;-81
2023/05/07 02:16:56;;;;;;;15.75;13.77;;;;;;;13.77;100.00;101302.94;5071167;28;20078;-82
2023/05/07 02:19:21;;;;;;;16.73;14.10;;;;;;;13.77;100.00;101296.72;5052347;28;20426;-81
2023/05/07 02:21:47;;;;;;;16.53;14.37;;;;;;;13.75;100.00;101290.75;5070846;28;20333;-81
2023/05/07 02:24:13;;;;;;;19.02;15.35;;;;;;;13.77;100.00;101292.19;5053306;28;20293;-81
2023/05/07 02:26:39;;;;;;;16.80;14.45;;;;;;;13.79;100.00;101306.22;5052678;28;20075;-81
2023/05/07 02:32:26;;;;;;;21.55;14.73;;;;;;;13.78;100.00;101296.50;5072189;28;20044;-81
2023/05/07 02:34:52;;;;;;;20.17;14.80;;;;;;;13.80;100.00;101305.16;5074688;28;20032;-81
2023/05/07 02:37:17;;;;;;;20.07;14.93;;;;;;;13.76;100.00;101295.91;5074585;28;20286;-81
2023/05/07 02:39:42;;;;;;;20.37;16.50;;;;;;;13.83;100.00;101302.03;5056096;28;20633;-81
2023/05/07 02:42:07;;;;;;;20.50;16.77;;;;;;;13.75;100.00;101286.19;5074438;28;20328;-81
2023/05/07 02:44:33;;;;;;;18.67;15.13;;;;;;;13.79;100.00;101300.00;5073721;28;20290;-81
2023/05/07 02:46:58;;;;;;;19.40;16.65;;;;;;;13.75;100.00;101291.56;5074591;28;20744;-81
2023/05/07 02:49:24;;;;;;;20.63;15.10;;;;;;;13.71;100.00;101290.38;5056138;28;20031;-81
2023/05/07 02:51:49;;;;;;;19.92;16.00;;;;;;;13.68;100.00;101290.00;5055829;28;20286;-81
2023/05/07 02:54:15;;;;;;;25.48;16.65;;;;;;;13.73;100.00;101301.72;5074202;28;20428;-80
2023/05/07 02:56:40;;;;;;;20.90;16.35;;;;;;;13.73;100.00;101298.22;5055730;28;20131;-80
2023/05/07 03:02:27;;;;;;;20.67;16.83;;;;;;;13.67;100.00;101294.56;5074481;28;20553;-81
2023/05/07 03:04:52;;;;;;;19.57;16.17;;;;;;;13.67;100.00;101291.88;5056098;28;20119;-81
2023/05/07 03:07:17;;;;;;;19.87;17.47;;;;;;;13.66;100.00;101292.94;5074098;28;20635;-81
2023/05/07 03:09:42;;;;;;;24.00;17.43;;;;;;;13.62;100.00;101289.06;5055377;28;20313;-81
2023/05/07 03:12:08;;;;;;;23.07;18.30;;;;;;;13.66;100.00;101303.69;5055625;28;20290;-81
2023/05/07 03:17:55;;;;;;;22.58;18.02;;;;;;;13.59;100.00;101292.19;5074058;28;20304;-81
2023/05/07 03:20:20;;;;;;;24.13;19.27;;;;;;;13.59;100.00;101292.19;5073115;28;20086;-81
2023/05/07 03:22:45;;;;;;;24.23;18.63;;;;;;;13.58;100.00;101294.03;5073680;28;20035;-81
2023/05/07 03:25:11;;;;;;;24.20;19.70;;;;;;;13.58;100.00;101290.50;5073592;28;20483;-81
2023/05/07 03:27:37;;;;;;;23.80;19.27;;;;;;;13.63;100.00;101285.31;5055302;28;20046;-81
2023/05/07 03:30:03;;;;;;;25.00;19.17;;;;;;;13.62;100.00;101292.56;5055456;28;20423;-81
2023/05/07 03:32:29;;;;;;;24.02;19.40;;;;;;;13.67;100.00;101291.06;5055106;28;20505;-81
2023/05/07 03:34:54;;;;;;;24.50;19.10;;;;;;;13.68;100.00;101292.69;5073756;28;20048;-81
2023/05/07 03:37:19;;;;;;;23.67;19.00;;;;;;;13.64;100.00;101281.59;5055547;28;20267;-80
2023/05/07 03:39:44;;;;;;;23.70;18.13;;;;;;;13.66;100.00;101287.56;5072739;28;20048;-81
2023/05/07 03:45:31;;;;;;;23.45;18.83;;;;;;;13.68;100.00;101285.47;5072389;28;20274;-81
2023/05/07 03:47:56;;;;;;;23.53;19.70;;;;;;;13.64;100.00;101285.09;5055447;28;20040;-80
2023/05/07 03:50:22;;;;;;;23.17;19.60;;;;;;;13.64;100.00;101293.16;5072520;28;20283;-81
2023/05/07 03:52:47;;;;;;;23.80;19.85;;;;;;;13.63;100.00;101285.31;5055278;28;20778;-82
2023/05/07 03:55:12;;;;;;;26.73;20.00;;;;;;;13.62;100.00;101283.66;5073507;28;20032;-82
2023/05/07 03:57:37;;;;;;;25.05;20.45;;;;;;;13.60;100.00;101291.97;5072476;28;20283;-82
2023/05/07 04:00:04;;;;;;;23.90;19.90;;;;;;;13.62;100.00;101297.09;5055314;28;20024;-81
2023/05/07 04:02:30;;;;;;;25.17;20.00;;;;;;;13.61;100.00;101300.84;5072302;28;20297;-81
2023/05/07 04:04:55;;;;;;;26.42;20.73;;;;;;;13.62;100.00;101299.78;5055155;28;20020;-80
2023/05/07 04:07:20;;;;;;;23.80;19.37;;;;;;;13.64;100.00;101297.72;5055058;28;20063;-81
2023/05/07 04:09:45;;;;;;;26.23;20.40;;;;;;;13.62;100.00;101299.78;5054576;28;20637;-80
2023/05/07 04:12:11;;;;;;;23.83;19.30;;;;;;;13.63;100.00;101302.25;5073035;28;20349;-80
2023/05/07 04:17:58;;;;;;;21.17;18.77;;;;;;;13.64;100.00;101319.22;5072904;28;20277;-80
2023/05/07 04:23:46;;;;;;;22.73;20.02;;;;;;;13.57;100.00;101313.06;5072831;28;20047;-80
2023/05/07 04:26:11;;;;;;;22.83;19.42;;;;;;;13.59;100.00;101311.00;5071882;28;20045;-81
2023/05/07 04:28:38;;;;;;;24.55;20.80;;;;;;;13.60;100.00;101313.47;5072653;28;20036;-80
2023/05/07 04:31:03;;;;;;;23.60;19.92;;;;;;;13.55;100.00;101307.06;5054778;28;20496;-81
2023/05/07 04:33:28;;;;;;;24.67;20.55;;;;;;;13.62;100.00;101314.06;5071789;28;20040;-81
2023/05/07 04:35:54;;;;;;;26.70;22.60;;;;;;;13.62;100.00;101316.75;5072592;28;20116;-81
2023/05/07 04:38:19;;;;;;;26.00;20.87;;;;;;;13.60;100.00;101307.25;5071825;28;20282;-80
2023/05/07 04:40:44;;;;;;;27.33;22.23;;;;;;;13.61;100.00;101316.97;5054469;28;20816;-80
2023/05/07 04:43:10;;;;;;;25.15;22.25;;;;;;;13.61;100.00;101314.28;5072238;28;20294;-81
2023/05/07 04:45:36;;;;;;;29.70;24.25;;;;;;;13.62;100.00;101313.22;5053928;28;20094;-81
2023/05/07 04:48:01;;;;;;;33.10;25.10;;;;;;;13.69;100.00;101321.22;5054488;28;20162;-81
2023/05/07 04:50:27;;;;;;;30.40;23.85;;;;;;;13.66;100.00;101322.50;5071517;28;20079;-81
2023/05/07 04:52:52;;;;;;;30.60;24.30;;;;;;;13.71;100.00;101325.31;5072282;28;20052;-81
2023/05/07 04:55:17;;;;;;;30.17;25.40;;;;;;;13.72;100.00;101324.28;5071666;28;20425;-81
2023/05/07 04:57:43;;;;;;;30.20;24.35;;;;;;;13.76;100.00;101328.16;5053638;28;20032;-81
2023/05/07 05:00:08;;;;;;;29.48;23.55;;;;;;;13.83;100.00;101336.16;5054093;28;20028;-81
2023/05/07 05:02:34;;;;;;;30.23;24.48;;;;;;;13.87;100.00;101331.97;5053382;28;20045;-81
2023/05/07 05:05:02;;;;;;;28.50;23.75;;;;;;;13.87;100.00;101323.91;5072091;28;20033;-81
2023/05/07 05:07:28;;;;;;;30.50;24.23;;;;;;;13.93;100.00;101326.53;5046104;28;20047;-81
2023/05/07 05:09:53;;;;;;;33.13;24.73;;;;;;;14.01;100.00;101335.34;5071261;28;20488;-81
2023/05/07 05:15:40;;;;;;;28.10;23.48;;;;;;;14.11;100.00;101330.25;5072816;28;20043;-81
2023/05/07 05:18:06;;;;;;;30.20;24.08;;;;;;;14.18;100.00;101329.16;5054332;28;20389;-81
2023/05/07 05:20:31;;;;;;;33.00;24.42;;;;;;;14.24;100.00;101333.63;5053366;28;20041;-81
2023/05/07 05:22:57;;;;;;;30.73;24.85;;;;;;;14.30;100.00;101325.69;5072120;28;20396;-81
2023/05/07 05:28:43;;;;;;;28.42;25.35;;;;;;;14.57;100.00;101352.03;5072228;28;20691;-81
2023/05/07 05:31:09;;;;;;;29.65;25.13;;;;;;;14.61;100.00;101348.91;5054233;28;20020;-80
2023/05/07 05:33:34;;;;;;;30.53;23.87;;;;;;;14.63;100.00;101347.63;5053506;28;20122;-81
2023/05/07 05:39:23;;;;;;;31.90;25.05;;;;;;;14.73;100.00;101360.50;5072303;28;20101;-80
2023/05/07 05:41:48;;;;;;;30.30;24.83;;;;;;;14.75;100.00;101359.25;5071714;28;20032;-80
2023/05/07 05:44:13;;;;;;;32.35;26.92;;;;;;;14.80;100.00;101358.56;5071243;28;20134;-81
2023/05/07 05:46:38;;;;;;;31.50;27.00;;;;;;;14.78;100.00;101361.50;5071722;28;20072;-79
2023/05/07 05:49:04;;;;;;;36.42;27.92;;;;;;;14.79;100.00;101363.13;5053987;28;20364;-81
2023/05/07 05:51:29;;;;;;;31.07;27.67;;;;;;;14.82;100.00;101365.38;5070928;28;20040;-81
2023/05/07 05:57:16;;;;;;;36.40;28.60;;;;;;;14.97;100.00;101366.81;5071751;28;20270;-80
2023/05/07 05:59:42;;;;;;;34.38;28.50;;;;;;;15.01;100.00;101355.34;5071533;28;20037;-80
2023/05/07 06:02:07;;;;;;;32.85;28.63;;;;;;;15.05;100.00;101358.41;5053467;28;20120;-80
2023/05/07 06:04:33;;;;;;;35.88;31.30;;;;;;;15.10;100.00;101362.06;5070656;28;20180;-80
2023/05/07 06:06:58;;;;;;;34.47;29.63;;;;;;;15.19;100.00;101360.66;5053489;28;20036;-80
2023/05/07 06:09:23;;;;;;;39.25;32.20;;;;;;;15.30;100.00;101368.97;5056259;28;20291;-80
2023/05/07 06:11:48;;;;;;;37.25;29.45;;;;;;;15.37;100.00;101365.16;5074877;28;20031;-80
2023/05/07 06:14:14;;;;;;;33.30;28.67;;;;;;;15.38;100.00;101363.28;5074817;28;20461;-80
2023/05/07 06:16:39;;;;;;;35.47;28.92;;;;;;;15.45;100.00;101366.66;5074108;28;20287;-80
2023/05/07 06:19:05;;;;;;;36.20;29.17;;;;;;;15.50;100.00;101366.78;5074728;28;20023;-81
2023/05/07 06:21:30;;;;;;;33.95;27.92;;;;;;;15.62;100.00;101362.25;5056102;28;20485;-80
2023/05/07 06:23:56;;;;;;;30.55;27.27;;;;;;;15.56;100.00;101357.75;5074781;28;20029;-80
2023/05/07 06:26:21;;;;;;;31.00;26.40;;;;;;;15.56;100.00;101352.34;5056665;28;20028;-80
2023/05/07 06:32:11;;;;;;;31.77;28.20;;;;;;;15.90;100.00;101360.69;5074465;28;20044;-81
2023/05/07 06:34:36;;;;;;;29.98;26.23;;;;;;;16.04;100.00;101368.31;5073866;28;20060;-81
2023/05/07 06:37:02;;;;;;;31.33;26.67;;;;;;;16.00;100.00;101363.63;5074425;28;20362;-81
2023/05/07 06:39:27;;;;;;;29.58;25.60;;;;;;;16.01;100.00;101363.41;5073632;28;20049;-81
2023/05/07 06:41:53;;;;;;;31.13;26.15;;;;;;;16.04;100.00;101368.31;5074591;28;20033;-81
2023/05/07 06:44:19;;;;;;;27.52;24.08;;;;;;;16.09;100.00;101370.28;5056209;28;20032;-80
2023/05/07 06:46:44;;;;;;;32.67;25.70;;;;;;;16.19;100.00;101369.69;5073523;28;20478;-80
2023/05/07 06:49:10;;;;;;;30.35;25.67;;;;;;;16.24;100.00;101380.59;5056383;28;20032;-81
2023/05/07 06:51:35;;;;;;;36.08;25.17;;;;;;;16.17;100.00;101386.09;5055568;28;20416;-81
2023/05/07 06:54:01;;;;;;;28.80;24.58;;;;;;;16.07;100.00;101384.03;5056103;28;20043;-81
2023/05/07 06:56:27;;;;;;;28.20;24.02;;;;;;;16.05;100.00;101385.31;5065949;28;20036;-80
2023/05/07 07:02:13;;;;;;;28.23;23.52;;;;;;;15.99;100.00;101389.78;5074333;28;20435;-81
2023/05/07 07:04:39;;;;;;;31.38;26.02;;;;;;;15.89;100.00;101383.31;5073122;28;20041;-78
2023/05/07 07:07:04;;;;;;;27.65;24.67;;;;;;;15.94;100.00;101386.16;5074043;28;20025;-80
2023/05/07 07:09:29;;;;;;;29.77;23.33;;;;;;;15.83;100.00;101377.00;5055220;28;20424;-79
2023/05/07 07:15:16;;;;;;;31.67;25.27;;;;;;;15.62;100.00;101375.75;5074043;28;20785;-81
2023/05/07 07:17:42;;;;;;;32.33;25.50;;;;;;;15.57;100.00;101385.53;5073228;28;20044;-80
2023/05/07 07:20:08;;;;;;;29.55;25.30;;;;;;;15.56;100.00;101383.88;5055550;28;20399;-80
2023/05/07 07:22:33;;;;;;;31.38;26.40;;;;;;;15.61;100.00;101390.28;5072999;28;20507;-81
2023/05/07 07:24:58;;;;;;;33.30;25.63;;;;;;;15.70;100.00;101402.34;5055779;28;20035;-79
2023/05/07 07:30:45;;;;;;;31.85;26.13;;;;;;;15.56;100.00;101394.66;5074062;28;20302;-80
2023/05/07 07:33:10;;;;;;;32.72;26.73;;;;;;;15.46;100.00;101390.69;5073706;28;20060;-80
2023/05/07 07:35:36;;;;;;;32.20;27.48;;;;;;;15.53;100.00;101392.44;5054947;28;20064;-80
2023/05/07 07:38:01;;;;;;;32.95;26.55;;;;;;;15.69;100.00;101400.72;5055526;28;20107;-80
2023/05/07 07:40:27;;;;;;;32.63;27.10;;;;;;;15.89;100.00;101402.22;5054912;28;20088;-80
2023/05/07 07:42:53;;;;;;;32.70;27.10;;;;;;;16.11;100.00;101412.16;5055380;28;20480;-80
2023/05/07 07:45:18;;;;;;;35.25;26.90;;;;;;;16.26;100.00;101400.06;5073438;28;20035;-80
2023/05/07 07:47:44;;;;;;;32.20;27.23;;;;;;;16.29;100.00;101397.72;5072737;28;20413;-80
2023/05/07 07:50:10;;;;;;;33.67;28.67;;;;;;;16.49;100.00;101404.59;5055229;28;20082;-80
2023/05/07 07:52:35;;;;;;;34.40;27.25;;;;;;;16.67;100.00;101407.13;5054617;28;20044;-79
2023/05/07 07:55:01;;;;;;;30.65;27.27;;;;;;;16.91;100.00;101413.28;5073174;28;20021;-80
2023/05/07 07:57:26;;;;;;;33.25;27.02;;;;;;;17.12;100.00;101414.47;5073211;28;20038;-79
2023/05/07 08:03:14;;;;;;;29.70;25.90;;;;;;;17.51;100.00;101407.28;5073065;28;20051;-79
2023/05/07 08:05:39;;;;;;;32.92;24.33;;;;;;;17.68;100.00;101407.31;5054463;28;20040;-81
2023/05/07 08:08:05;;;;;;;28.13;24.38;;;;;;;17.76;100.00;101407.72;5072742;28;20025;-80
2023/05/07 08:10:34;;;;;;;28.10;23.52;;;;;;;17.89;100.00;101401.13;5072309;28;20028;-80
2023/05/07 08:13:00;;;;;;;27.13;23.98;;;;;;;18.08;100.00;101407.91;5072872;28;20128;-78
2023/05/07 08:15:25;;;;;;;27.35;23.92;;;;;;;18.23;100.00;101421.66;5072851;28;20111;-79
2023/05/07 08:17:50;;;;;;;27.37;21.83;;;;;;;18.45;100.00;101413.50;5072107;28;20441;-78
2023/05/07 08:20:15;;;;;;;24.40;21.80;;;;;;;18.90;100.00;101417.03;5072723;28;20290;-78
2023/05/07 08:22:41;;;;;;;29.83;21.83;;;;;;;19.19;100.00;101421.94;5054017;28;20307;-79
2023/05/07 08:25:06;;;;;;;24.37;21.83;;;;;;;19.23;100.00;101427.66;5072617;28;20075;-79
2023/05/07 08:27:32;;;;;;;25.08;22.33;;;;;;;19.41;100.00;101416.44;5072646;28;20285;-79
2023/05/07 08:29:57;;;;;;;23.40;20.90;;;;;;;19.88;100.00;101428.47;5071323;28;20143;-78
2023/05/07 08:35:44;;;;;;;25.17;20.85;;;;;;;20.25;100.00;101431.97;5070925;28;20086;-78
2023/05/07 08:38:09;;;;;;;23.83;20.67;;;;;;;20.40;100.00;101431.25;5072734;28;20036;-78
2023/05/07 08:40:40;;;;;;;22.90;20.20;;;;;;;20.61;100.00;101432.97;5072660;28;20790;-78
2023/05/07 08:43:06;;;;;;;23.30;19.60;;;;;;;20.76;100.00;101428.66;5061369;28;20429;-77
2023/05/07 08:45:33;;;;;;;22.65;19.77;;;;;;;20.91;100.00;101428.72;5072148;28;20056;-77
2023/05/07 08:48:02;;;;;;;21.67;19.40;;;;;;;20.78;100.00;101424.56;5071140;28;20110;-77
2023/05/07 08:50:28;;;;;;;25.42;19.60;;;;;;;20.53;100.00;101425.34;5072103;28;20034;-77
2023/05/07 08:52:54;;;;;;;20.27;18.15;;;;;;;20.48;100.00;101433.44;5054055;28;20472;-77
2023/05/07 08:55:20;;;;;;;20.85;18.40;;;;;;;20.40;100.00;101433.97;5071400;28;20051;-78
2023/05/07 08:57:45;;;;;;;21.25;18.92;;;;;;;20.30;100.00;101429.28;5054074;28;20028;-77
2023/05/07 09:00:11;;;;;;;20.53;18.33;;;;;;;20.34;100.00;101427.66;5071430;28;20059;-77
2023/05/07 09:02:36;;;;;;;21.92;18.65;;;;;;;20.47;100.00;101428.28;5072117;28;20278;-77
2023/05/07 09:05:02;;;;;;;20.30;18.08;;;;;;;20.64;100.00;101432.44;5072405;28;20107;-77
2023/05/07 09:07:28;;;;;;;22.20;18.48;;;;;;;20.67;100.00;101440.06;5071007;28;20755;-77
2023/05/07 09:09:55;;;;;;;21.52;18.83;;;;;;;20.57;100.00;101444.63;5072174;28;20078;-76
2023/05/07 09:12:21;;;;;;;20.85;18.83;;;;;;;20.45;100.00;101431.25;5071354;28;20029;-76
2023/05/07 09:18:08;;;;;;;20.45;18.10;;;;;;;20.25;100.00;101428.44;5070159;28;20051;-76
2023/05/07 09:20:33;;;;;;;20.40;18.27;;;;;;;20.36;100.00;101432.81;5072155;28;20037;-75
2023/05/07 09:22:58;;;;;;;20.57;18.47;;;;;;;20.36;100.00;101440.97;5054122;28;20636;-74
2023/05/07 09:25:29;;;;;;;21.52;17.80;;;;;;;20.19;100.00;101434.91;5053422;28;20282;-75
2023/05/07 09:27:55;;;;;;;21.10;18.90;;;;;;;20.02;100.00;101438.63;5053623;28;20024;-74
2023/05/07 09:30:20;;;;;;;21.20;18.77;;;;;;;19.82;100.00;101437.66;5070953;28;20041;-74
2023/05/07 09:32:46;;;;;;;25.67;19.20;;;;;;;19.68;100.00;101437.31;5071674;28;20082;-74
2023/05/07 09:35:21;;;;;;;20.75;17.80;;;;;;;19.60;100.00;101440.47;5053759;28;20392;-75
2023/05/07 09:37:46;;;;;;;21.50;17.83;;;;;;;19.60;100.00;101448.63;5048479;28;20127;-75
2023/05/07 09:40:29;;;;;;;20.63;18.40;;;;;;;19.47;100.00;101436.28;5071835;28;20071;-75
2023/05/07 09:42:55;;;;;;;21.33;18.38;;;;;;;19.43;100.00;101441.41;5055806;28;20051;-74
2023/05/07 09:45:29;;;;;;;22.63;18.45;;;;;;;19.46;100.00;101443.59;5075186;28;20473;-76
2023/05/07 09:47:58;;;;;;;20.17;17.88;;;;;;;19.59;100.00;101450.50;5074487;28;20052;-75
2023/05/07 09:50:28;;;;;;;21.00;18.58;;;;;;;19.73;100.00;101450.91;5057208;28;20044;-75
2023/05/07 09:52:55;;;;;;;21.38;17.60;;;;;;;19.92;100.00;101459.44;5057199;28;20094;-75
2023/05/07 09:55:21;;;;;;;22.95;18.63;;;;;;;20.18;100.00;101446.84;5074201;28;20033;-75
2023/05/07 09:57:49;;;;;;;21.00;17.65;;;;;;;20.48;100.00;101451.66;5074852;28;20032;-76
2023/05/07 10:00:16;;;;;;;19.42;17.33;;;;;;;20.59;100.00;101448.72;5074233;28;20040;-74
2023/05/07 10:02:48;;;;;;;19.48;16.67;;;;;;;20.88;100.00;101451.81;5074921;28;20429;-75
2023/05/07 10:05:14;;;;;;;18.02;16.05;;;;;;;21.30;100.00;101454.34;5056826;28;20028;-75
2023/05/07 10:07:40;;;;;;;19.65;17.55;;;;;;;21.68;100.00;101445.91;5056160;28;20098;-75
2023/05/07 10:10:06;;;;;;;19.55;17.40;;;;;;;21.88;100.00;101449.44;5075009;28;20112;-75
2023/05/07 10:12:37;;;;;;;18.60;16.48;;;;;;;21.82;99.13;101442.38;5073895;28;20091;-75
2023/05/07 10:18:29;;;;;;;18.13;15.63;;;;;;;22.68;97.35;101454.97;5075171;28;20109;-75
2023/05/07 10:20:58;;;;;;;19.90;17.58;;;;;;;22.51;97.86;101447.13;5074637;28;20381;-75
2023/05/07 10:23:25;;;;;;;19.17;16.20;;;;;;;22.53;96.79;101453.09;5074576;28;20116;-75
2023/05/07 10:25:50;;;;;;;18.50;16.15;;;;;;;22.46;95.40;101447.13;5073695;28;20492;-74
2023/05/07 10:28:17;;;;;;;16.67;14.98;;;;;;;22.25;94.22;101451.84;5074420;28;20026;-75
2023/05/07 10:30:55;;;;;;;17.75;16.05;;;;;;;22.06;97.28;101450.00;5055597;28;20044;-75
2023/05/07 10:33:26;;;;;;;19.02;15.50;;;;;;;22.00;96.77;101457.34;5074689;28;20036;-75
2023/05/07 10:35:57;;;;;;;17.70;15.20;;;;;;;22.10;96.04;101449.16;5074520;28;20028;-75
2023/05/07 10:41:44;;;;;;;18.95;14.25;;;;;;;22.63;94.72;101462.34;5074753;28;20073;-74
2023/05/07 10:44:10;;;;;;;16.13;14.35;;;;;;;22.83;91.01;101446.72;5055551;28;20037;-74
2023/05/07 10:46:35;;;;;;;19.50;16.23;;;;;;;22.92;93.54;101448.88;5074265;28;20032;-74
2023/05/07 10:49:02;;;;;;;19.90;15.75;;;;;;;23.01;95.67;101452.63;5073529;28;20159;-74
2023/05/07 10:51:30;;;;;;;17.42;15.68;;;;;;;23.07;91.65;101444.13;5074371;28;20021;-73
2023/05/07 10:54:19;;;;;;;18.63;16.60;;;;;;;23.20;93.42;101455.53;5073392;28;20031;-74
2023/05/07 11:00:25;;;;;;;17.73;15.90;;;;;;;23.86;91.08;101455.00;5074365;28;20055;-73
2023/05/07 11:02:59;;;;;;;18.10;16.00;;;;;;;23.95;87.84;101456.00;5073388;28;20043;-73
2023/05/07 11:05:26;;;;;;;19.00;15.98;;;;;;;24.05;87.80;101453.19;5056123;28;20028;-74
2023/05/07 11:08:01;;;;;;;18.48;14.15;;;;;;;24.34;82.91;101451.25;5055324;28;20048;-74
2023/05/07 11:10:53;;;;;;;17.73;13.93;;;;;;;24.74;84.78;101462.75;5055947;28;20111;-74
2023/05/07 11:13:39;;;;;;;17.60;14.88;;;;;;;24.78;82.22;101457.50;5073096;28;20036;-74
2023/05/07 11:19:53;;;;;;;16.42;13.43;;;;;;;24.71;82.42;101457.88;5073996;28;20043;-72
2023/05/07 11:22:30;;;;;;;17.15;15.35;;;;;;;25.13;81.81;101462.50;5059111;28;20107;-73
2023/05/07 11:24:55;;;;;;;16.75;14.68;;;;;;;25.26;77.90;101460.97;5073599;28;20115;-74
2023/05/07 11:27:24;;;;;;;16.35;13.77;;;;;;;25.12;76.85;101466.34;5055165;28;20128;-73
2023/05/07 11:29:50;;;;;;;15.75;13.75;;;;;;;24.89;78.40;101462.56;5055575;28;20492;-73
2023/05/07 11:32:22;;;;;;;15.48;13.88;;;;;;;24.56;77.01;101458.06;5055062;28;20048;-73
2023/05/07 11:34:51;;;;;;;13.88;12.40;;;;;;;24.56;77.18;101461.63;5073600;28;20073;-73
2023/05/07 11:40:51;;;;;;;14.50;11.20;;;;;;;24.75;78.87;101464.38;5071979;28;20063;-73
2023/05/07 11:43:17;;;;;;;13.48;11.73;;;;;;;24.74;75.77;101476.44;5073018;28;20038;-73
2023/05/07 11:45:44;;;;;;;14.27;12.20;;;;;;;24.81;75.55;101468.69;5055275;28;20070;-74
2023/05/07 11:48:09;;;;;;;13.50;11.05;;;;;;;24.96;71.25;101456.72;5073182;28;20032;-73
2023/05/07 11:50:34;;;;;;;8.77;6.07;;;;;;;25.23;64.63;101456.09;5072664;28;20055;-73
2023/05/07 11:56:21;;;;;;;13.77;9.48;;;;;;;25.40;66.16;101456.34;5071323;28;20265;-74
2023/05/07 11:58:48;;;;;;;13.90;10.02;;;;;;;25.21;67.54;101458.31;5073149;28;20025;-73
2023/05/07 12:01:16;;;;;;;13.77;12.15;;;;;;;25.06;71.98;101461.25;5073098;28;20032;-74
2023/05/07 12:03:44;;;;;;;14.35;11.00;;;;;;;24.91;70.73;101456.81;5072239;28;20508;-73
2023/05/07 12:06:11;;;;;;;15.10;10.50;;;;;;;24.97;71.85;101452.88;5053924;28;20025;-73
2023/05/07 12:08:38;;;;;;;11.60;9.48;;;;;;;24.97;70.76;101453.69;5072248;28;20131;-74
2023/05/07 12:11:08;;;;;;;12.05;9.90;;;;;;;25.05;71.04;101460.44;5055028;28;20024;-73
2023/05/07 12:13:33;;;;;;;11.73;9.80;;;;;;;25.10;71.42;101456.81;5072067;28;20043;-74
2023/05/07 12:15:58;;;;;;;12.10;9.37;;;;;;;25.19;69.42;101460.53;5072659;28;20032;-74
2023/05/07 12:18:24;;;;;;;10.38;9.13;;;;;;;25.26;68.95;101448.09;5072768;28;20062;-74
2023/05/07 12:20:50;;;;;;;11.02;9.18;;;;;;;25.32;66.89;101460.59;5054380;28;20128;-74
2023/05/07 12:26:40;;;;;;;11.80;10.35;;;;;;;24.90;71.27;101453.25;5072999;28;20086;-74
2023/05/07 12:29:05;;;;;;;13.13;10.05;;;;;;;24.47;71.65;101465.31;5054780;28;20032;-73
2023/05/07 12:31:31;;;;;;;11.65;8.85;;;;;;;23.88;69.50;101469.19;5054179;28;20375;-73